Airfield :
LOGIN :

Register | Disclaimer

   EN    FR    IT 

 










Legend :    VFR   Marginal VFR   IFR   Intensive IFR   Very Intensive IFR
Visi :
Ceiling :
>= 8 km
>= 3000ft
5 to 8 km
1000 to 3000 ft
1500m to 5 km
500 to 1000 ft
800 to 1500m
200 to 500 ft
< 800m
< 200 ft
Symbols :   Thunderstorms  Fog  Heavy snow  Heavy precipitations  Wind > 20 kt
SIGMETs :     Misc.  Thunderstorms  Icing  Turbulence  Mountain Waves  Volcanic Ashes







- Airport Elevation : 7 ft
- IATA code : POW


LJPZ - Portoroz

CURRENT METAR :
  • 211300Z 35007KT 300V030 9999 FEW033 29/20 Q1010

EXPIRED METARs :
  • 211230Z 30006KT 9999 FEW033 SCT060 28/20 Q1011
  • 211200Z 31007KT 250V340 9999 FEW033 SCT060 29/20 Q1010
  • 211130Z VRB02KT 9999 FEW033 SCT070 OVC130 28/21 Q1010
  • 211100Z 31003KT 9999 FEW033 SCT070 OVC130 27/19 Q1011
  • 211030Z 28007KT 9999 FEW030 SCT080 BKN130 28/19 Q1011

TAF TAF LJPZ
Valid from the 21 at 12:00 until the 21 at 21:00 UTC


211100Z 2112/2121 26005KT 9999 FEW030 SCT080 BKN120
BECMG 2112/2115 22005KT
PROB40
TEMPO 2112/2121 VRB15G30KT 4000 TSRA SCT040CB BKN060
No reported NOTAMs for that airfield.



MET'MAP, your aeronautical weather chart ! - Copyright ORBIFLY December 2007 - Disclaimer

ORBIFLY MET'MAP TEAM :

Programming & Development : Alexandra Zaïnal
Concept & Development : Baudouin d'Aumeries
Co-Development & Prog : Marc-Olivier Méhu
Technical & hardware support : Manuel Goepfert

Contact : metmap@orbifly.com




SOURCES & CREDITS :

   NOAA